Time;durP1;ratioP1;P1;durP2;ratioP2;P2;SDS_P1;SDS_P2;PMS_P1;PMS_P2;Temp;Humidity;BMP_temperature;BMP_pressure;BME280_temperature;BME280_humidity;BME280_pressure;Samples;Min_cycle;Max_cycle;Signal;HPM_P1;HPM_P2
2022/09/25 00:00:23;;;;;;;10.30;7.60;;;;;;;5.75;83.84;100460.29;87118;1302;22474;-77
2022/09/25 00:02:56;;;;;;;9.90;7.90;;;;;;;5.69;83.95;100462.95;87176;1304;22476;-76
2022/09/25 00:05:08;;;;;;;10.90;8.30;;;;;;;5.65;83.78;100463.20;87120;1274;22868;-76
2022/09/25 00:07:17;;;;;;;10.10;7.80;;;;;;;5.62;83.67;100456.84;87212;1278;25418;-75
2022/09/25 00:09:30;;;;;;;8.90;8.00;;;;;;;5.58;83.66;100453.96;87176;1297;22581;-76
2022/09/25 00:11:40;;;;;;;12.30;7.60;;;;;;;5.56;83.98;100455.75;87185;1275;24828;-80
2022/09/25 00:13:51;;;;;;;9.60;7.00;;;;;;;5.53;84.05;100453.88;87186;1291;22863;-77
2022/09/25 00:16:03;;;;;;;11.30;7.60;;;;;;;5.50;84.02;100452.38;87222;1290;22471;-76
2022/09/25 00:18:15;;;;;;;12.60;8.50;;;;;;;5.48;84.07;100451.36;87193;1286;22466;-78
2022/09/25 00:20:29;;;;;;;11.60;8.00;;;;;;;5.45;84.00;100453.65;87181;1304;22469;-76
2022/09/25 00:22:39;;;;;;;11.00;8.20;;;;;;;5.43;84.00;100451.28;87202;1304;24370;-73
2022/09/25 00:24:49;;;;;;;;;;;;;;;5.39;83.78;100448.22;87236;1304;22470;-76
2022/09/25 00:27:04;;;;;;;9.20;8.00;;;;;;;5.31;83.97;100450.08;86384;1274;1003534;-76
2022/09/25 00:29:23;;;;;;;9.40;7.60;;;;;;;5.24;83.56;100457.42;87086;1278;22602;-76
2022/09/25 00:31:34;;;;;;;11.40;8.00;;;;;;;5.20;83.83;100454.90;87105;1306;22473;-75
2022/09/25 00:33:46;;;;;;;10.70;7.60;;;;;;;5.16;83.96;100457.21;87185;1287;25275;-75
2022/09/25 00:35:57;;;;;;;11.90;8.20;;;;;;;5.11;83.85;100452.10;87139;1301;25442;-75
2022/09/25 00:38:25;;;;;;;11.20;8.80;;;;;;;5.06;83.73;100452.16;87246;1282;22478;-76
2022/09/25 00:40:40;;;;;;;9.00;7.00;;;;;;;5.01;83.87;100446.02;87193;1298;22474;-78
2022/09/25 00:43:01;;;;;;;10.80;8.20;;;;;;;4.98;84.08;100447.42;87100;1305;22490;-77
2022/09/25 00:45:15;;;;;;;7.50;6.60;;;;;;;4.95;83.76;100442.28;87183;1275;22544;-75
2022/09/25 00:47:41;;;;;;;8.80;7.00;;;;;;;4.91;84.06;100439.58;87195;1275;25271;-73
2022/09/25 00:49:50;;;;;;;10.90;7.90;;;;;;;4.87;84.18;100439.46;86444;1305;1003716;-77
2022/09/25 00:52:03;;;;;;;13.00;8.00;;;;;;;4.84;83.99;100439.16;87252;1298;25432;-78
2022/09/25 00:54:16;;;;;;;14.50;7.20;;;;;;;4.81;84.32;100439.36;87195;1279;22434;-77
2022/09/25 00:56:28;;;;;;;9.80;7.00;;;;;;;4.80;84.20;100438.35;87036;1283;22493;-74
2022/09/25 00:58:38;;;;;;;9.40;7.30;;;;;;;4.78;84.29;100438.71;87272;1304;22472;-73
2022/09/25 01:00:52;;;;;;;13.00;7.40;;;;;;;4.75;84.11;100441.19;87234;1304;22595;-78
2022/09/25 01:03:04;;;;;;;9.60;7.70;;;;;;;4.74;84.45;100439.48;87148;1306;27209;-78
2022/09/25 01:05:21;;;;;;;11.90;7.10;;;;;;;4.71;84.18;100446.60;87242;1275;22908;-77
2022/09/25 01:07:32;;;;;;;11.20;7.80;;;;;;;4.65;84.19;100444.40;87193;1298;22458;-77
2022/09/25 01:09:58;;;;;;;10.80;7.40;;;;;;;4.61;84.28;100444.12;85745;1306;1003664;-76
2022/09/25 01:12:39;;;;;;;10.60;7.10;;;;;;;4.54;84.15;100445.06;87192;1280;24284;-79
2022/09/25 01:14:51;;;;;;;13.30;7.60;;;;;;;4.47;84.40;100445.15;87219;1304;25107;-75
2022/09/25 01:17:10;;;;;;;9.40;7.40;;;;;;;4.43;84.34;100442.27;87180;1278;22488;-76
2022/09/25 01:19:32;;;;;;;10.60;7.90;;;;;;;4.39;84.47;100441.80;87201;1301;26516;-75
2022/09/25 01:21:48;;;;;;;13.30;7.50;;;;;;;4.37;84.52;100440.62;87234;1298;22464;-77
2022/09/25 01:24:34;;;;;;;15.10;7.80;;;;;;;4.34;84.59;100436.50;86477;1304;1016239;-78
2022/09/25 01:27:40;;;;;;;10.60;7.30;;;;;;;4.32;84.66;100437.05;87027;1304;22540;-76
2022/09/25 01:30:00;;;;;;;8.10;7.30;;;;;;;4.28;84.73;100437.44;87192;1299;22497;-76
2022/09/25 01:32:20;;;;;;;8.40;6.90;;;;;;;4.25;84.84;100436.60;87174;1291;22662;-79
2022/09/25 01:34:34;;;;;;;12.10;6.90;;;;;;;4.23;84.74;100436.11;87192;1288;25934;-76
2022/09/25 01:36:45;;;;;;;9.70;7.40;;;;;;;4.22;84.91;100435.42;87157;1282;22477;-75
2022/09/25 01:38:57;;;;;;;11.30;7.50;;;;;;;4.21;85.02;100435.95;87223;1288;22471;-76
2022/09/25 01:41:11;;;;;;;10.00;7.30;;;;;;;4.22;85.40;100434.91;87206;1284;22463;-76
2022/09/25 01:43:26;;;;;;;10.50;8.00;;;;;;;4.23;85.32;100434.38;87204;1289;25341;-78
2022/09/25 01:45:41;;;;;;;8.90;7.60;;;;;;;4.22;85.13;100434.04;87104;1291;22497;-77
2022/09/25 01:47:53;;;;;;;10.70;7.80;;;;;;;4.20;85.10;100431.32;87076;1306;24740;-74
2022/09/25 01:50:02;;;;;;;14.20;8.00;;;;;;;4.17;85.01;100428.58;87102;1305;22482;-76
2022/09/25 01:52:12;;;;;;;10.70;7.90;;;;;;;4.14;85.14;100430.51;87210;1304;22474;-76
2022/09/25 01:54:27;;;;;;;8.40;7.40;;;;;;;4.13;84.97;100425.00;87196;1284;22482;-75
2022/09/25 01:56:42;;;;;;;12.10;7.40;;;;;;;4.09;85.18;100424.86;87173;1298;22924;-75
2022/09/25 01:58:53;;;;;;;9.10;7.10;;;;;;;4.07;85.10;100425.58;87173;1288;22519;-75
2022/09/25 02:01:05;;;;;;;9.50;8.60;;;;;;;4.04;85.05;100425.77;87168;1304;22464;-76
2022/09/25 02:03:18;;;;;;;9.50;7.60;;;;;;;4.00;85.04;100421.52;87204;1274;22501;-78
2022/09/25 02:05:31;;;;;;;12.90;7.50;;;;;;;3.98;85.19;100423.77;87036;1288;22525;-76
2022/09/25 02:07:46;;;;;;;10.70;7.70;;;;;;;3.96;85.08;100423.27;87124;1282;22529;-77
2022/09/25 02:09:56;;;;;;;10.70;7.70;;;;;;;3.94;85.07;100424.50;87054;1306;25414;-75
2022/09/25 02:12:11;;;;;;;10.10;7.90;;;;;;;3.92;85.38;100422.79;87173;1282;22594;-78
2022/09/25 02:14:22;;;;;;;8.10;6.70;;;;;;;3.89;85.14;100419.89;87217;1306;22616;-77
2022/09/25 02:16:35;;;;;;;11.30;8.20;;;;;;;3.86;85.29;100420.09;87191;1288;22491;-77
2022/09/25 02:21:20;;;;;;;9.10;8.10;;;;;;;3.79;85.34;100418.42;87060;1278;24709;-77
2022/09/25 02:23:38;;;;;;;10.40;7.80;;;;;;;3.76;85.21;100415.70;87201;1282;22552;-75
2022/09/25 02:25:52;;;;;;;11.30;7.30;;;;;;;3.74;85.40;100413.30;87194;1304;22638;-75
2022/09/25 02:28:04;;;;;;;14.20;7.20;;;;;;;3.72;85.54;100404.18;87182;1284;22527;-74
2022/09/25 02:30:17;;;;;;;8.60;7.60;;;;;;;3.70;85.59;100405.92;87213;1304;22510;-75
2022/09/25 02:32:29;;;;;;;9.10;7.60;;;;;;;3.69;85.69;100400.94;87182;1284;25270;-77
2022/09/25 02:34:45;;;;;;;11.20;7.60;;;;;;;3.69;85.86;100399.91;87179;1298;22478;-77
2022/09/25 02:36:55;;;;;;;11.50;8.10;;;;;;;3.68;85.82;100398.35;87154;1282;22472;-79
2022/09/25 02:39:06;;;;;;;10.20;8.30;;;;;;;3.67;85.76;100396.82;87218;1287;22436;-74
2022/09/25 02:41:20;;;;;;;10.10;8.40;;;;;;;3.65;86.00;100395.10;87166;1304;22489;-77
2022/09/25 02:43:39;;;;;;;13.80;8.60;;;;;;;3.65;86.05;100397.35;87080;1282;22482;-75
2022/09/25 02:45:52;;;;;;;10.60;7.60;;;;;;;3.66;86.13;100397.17;87188;1275;22533;-76
2022/09/25 02:48:09;;;;;;;12.00;8.00;;;;;;;3.67;86.30;100397.84;87171;1296;22465;-77
2022/09/25 02:50:24;;;;;;;13.00;8.80;;;;;;;3.68;86.01;100395.23;87146;1275;22483;-75
2022/09/25 02:52:37;;;;;;;13.60;8.60;;;;;;;3.68;86.01;100394.91;87176;1304;22464;-76
2022/09/25 02:54:52;;;;;;;10.20;8.40;;;;;;;3.64;85.94;100392.70;87068;1306;26455;-76
2022/09/25 02:57:06;;;;;;;10.00;8.50;;;;;;;3.59;85.85;100391.86;87121;1274;22492;-76
2022/09/25 02:59:20;;;;;;;11.40;9.30;;;;;;;3.57;85.95;100383.96;87200;1287;22461;-76
2022/09/25 03:01:31;;;;;;;13.50;8.60;;;;;;;3.55;85.95;100387.95;87065;1286;22438;-74
2022/09/25 03:03:41;;;;;;;9.30;8.10;;;;;;;3.53;86.05;100392.79;87185;1282;25460;-74
2022/09/25 03:05:49;;;;;;;;;;;;;;;3.52;86.17;100389.88;87218;1278;22439;-76
2022/09/25 03:10:25;;;;;;;12.10;7.90;;;;;;;3.45;86.20;100386.31;87147;1306;25385;-75
2022/09/25 03:12:39;;;;;;;12.70;10.20;;;;;;;3.43;86.28;100384.42;87163;1281;22486;-73
2022/09/25 03:14:48;;;;;;;11.60;8.20;;;;;;;3.45;86.58;100389.07;87181;1298;25281;-78
2022/09/25 03:16:58;;;;;;;13.10;8.80;;;;;;;3.48;86.69;100389.73;87180;1282;22752;-78
2022/09/25 03:19:07;;;;;;;12.10;8.20;;;;;;;3.50;86.68;100390.60;87208;1304;22515;-76
2022/09/25 03:21:15;;;;;;;11.80;8.70;;;;;;;3.49;86.63;100387.31;87200;1284;22504;-75
2022/09/25 03:23:24;;;;;;;11.30;9.50;;;;;;;3.47;86.93;100386.98;87204;1286;25494;-75
2022/09/25 03:25:35;;;;;;;15.10;8.90;;;;;;;3.46;86.73;100383.02;87239;1287;22476;-78
2022/09/25 03:27:44;;;;;;;15.10;9.60;;;;;;;3.44;86.60;100379.08;87194;1282;22474;-78
2022/09/25 03:29:55;;;;;;;12.80;9.40;;;;;;;3.41;86.65;100382.04;87183;1288;23766;-76
2022/09/25 03:32:07;;;;;;;13.60;9.30;;;;;;;3.39;86.58;100380.85;87196;1304;22506;-76
2022/09/25 03:34:18;;;;;;;11.70;8.80;;;;;;;3.37;86.55;100383.96;87176;1276;26576;-75
2022/09/25 03:36:30;;;;;;;12.90;9.10;;;;;;;3.34;86.47;100382.27;87211;1282;22474;-77
2022/09/25 03:38:40;;;;;;;11.70;8.90;;;;;;;3.31;86.28;100382.80;87202;1300;23727;-76
2022/09/25 03:40:50;;;;;;;13.90;9.80;;;;;;;3.29;86.33;100386.27;86499;1288;1002862;-75
2022/09/25 03:42:59;;;;;;;13.00;9.10;;;;;;;3.27;86.53;100389.39;87171;1274;23108;-75
2022/09/25 03:45:10;;;;;;;17.10;10.40;;;;;;;3.28;86.54;100393.18;87204;1304;22468;-78
2022/09/25 03:47:20;;;;;;;12.80;10.00;;;;;;;3.27;86.60;100389.91;87237;1274;22529;-77
2022/09/25 03:49:28;;;;;;;12.70;9.60;;;;;;;3.26;86.63;100388.37;87178;1274;22458;-74
2022/09/25 03:51:37;;;;;;;17.70;11.20;;;;;;;3.25;86.51;100387.86;87151;1284;22464;-75
2022/09/25 03:53:49;;;;;;;13.90;9.60;;;;;;;3.25;86.66;100386.65;87199;1304;22502;-77
2022/09/25 03:55:58;;;;;;;13.10;10.20;;;;;;;3.24;86.51;100377.36;87220;1287;22474;-77
2022/09/25 03:58:07;;;;;;;16.60;10.30;;;;;;;3.22;86.46;100377.38;87226;1282;24957;-81
2022/09/25 04:00:17;;;;;;;13.80;10.80;;;;;;;3.23;86.66;100379.95;87182;1282;28833;-76
2022/09/25 04:02:26;;;;;;;17.10;10.50;;;;;;;3.23;86.85;100380.80;87137;1280;22493;-78
2022/09/25 04:04:36;;;;;;;16.30;10.50;;;;;;;3.25;87.16;100382.69;87209;1304;24284;-76
2022/09/25 04:06:45;;;;;;;14.70;11.10;;;;;;;3.26;87.24;100386.99;87220;1298;22495;-75
2022/09/25 04:08:54;;;;;;;16.40;10.70;;;;;;;3.28;87.24;100389.73;87192;1288;26440;-78
2022/09/25 04:11:03;;;;;;;14.30;10.00;;;;;;;3.29;87.28;100389.37;87188;1304;22509;-78
2022/09/25 04:13:12;;;;;;;14.00;10.60;;;;;;;3.30;87.27;100388.51;87201;1304;22538;-76
2022/09/25 04:15:24;;;;;;;13.50;10.30;;;;;;;3.30;87.37;100387.98;87063;1303;22476;-78
2022/09/25 04:17:33;;;;;;;15.90;10.90;;;;;;;3.30;87.12;100387.13;87186;1295;22456;-75
2022/09/25 04:19:43;;;;;;;13.80;9.60;;;;;;;3.29;87.01;100388.68;87158;1298;22483;-76
2022/09/25 04:21:52;;;;;;;17.00;9.90;;;;;;;3.29;86.93;100389.04;87180;1306;22571;-73
2022/09/25 04:26:27;;;;;;;17.40;10.80;;;;;;;3.30;87.30;100384.20;87236;1304;22479;-74
2022/09/25 04:28:36;;;;;;;14.90;11.20;;;;;;;3.31;87.11;100382.64;87199;1287;22796;-75
2022/09/25 04:30:45;;;;;;;13.20;10.00;;;;;;;3.30;87.18;100384.20;87213;1298;22851;-77
2022/09/25 04:35:20;;;;;;;13.80;10.70;;;;;;;3.29;87.33;100382.65;87237;1304;24309;-75
2022/09/25 04:37:28;;;;;;;18.80;11.00;;;;;;;3.30;87.25;100384.02;87155;1306;22631;-76
2022/09/25 04:39:37;;;;;;;13.80;11.00;;;;;;;3.31;87.40;100382.98;87208;1290;22646;-78
2022/09/25 04:41:47;;;;;;;15.40;11.70;;;;;;;3.33;87.38;100380.55;87247;1296;24264;-74
2022/09/25 04:43:56;;;;;;;14.90;11.20;;;;;;;3.35;87.53;100381.06;87185;1280;22473;-74
2022/09/25 04:46:06;;;;;;;15.10;10.90;;;;;;;3.40;87.62;100376.36;87236;1297;25292;-75
2022/09/25 04:48:15;;;;;;;15.90;11.30;;;;;;;3.44;87.67;100376.66;87193;1282;22827;-74
2022/09/25 04:50:24;;;;;;;16.30;11.00;;;;;;;3.48;87.83;100374.55;86504;1287;1002928;-76
2022/09/25 04:52:33;;;;;;;16.30;11.50;;;;;;;3.52;87.89;100375.04;87183;1282;25299;-81
2022/09/25 04:54:45;;;;;;;16.90;11.80;;;;;;;3.55;87.89;100374.16;87046;1282;22474;-77
2022/09/25 04:56:54;;;;;;;13.80;10.80;;;;;;;3.58;87.71;100376.02;87143;1305;22465;-76
2022/09/25 04:59:03;;;;;;;15.00;11.10;;;;;;;3.61;87.81;100378.23;87195;1283;22463;-75
2022/09/25 05:01:12;;;;;;;13.70;11.10;;;;;;;3.65;87.97;100369.23;87183;1284;22459;-77
2022/09/25 05:03:21;;;;;;;14.20;11.30;;;;;;;3.70;88.26;100367.11;87193;1287;22519;-72
2022/09/25 05:05:30;;;;;;;15.90;11.60;;;;;;;3.76;88.36;100364.64;87241;1280;22461;-75
2022/09/25 05:07:39;;;;;;;13.30;10.70;;;;;;;3.84;88.41;100365.41;87196;1298;22476;-74
2022/09/25 05:09:48;;;;;;;18.70;11.90;;;;;;;3.93;88.66;100363.42;87089;1282;22478;-74
2022/09/25 05:11:57;;;;;;;16.80;10.90;;;;;;;4.02;88.81;100364.00;87183;1291;25251;-73
2022/09/25 05:14:06;;;;;;;15.60;10.90;;;;;;;4.14;89.04;100360.59;87097;1306;22682;-75
2022/09/25 05:16:16;;;;;;;14.30;11.10;;;;;;;4.26;89.11;100367.17;87202;1304;22484;-75
2022/09/25 05:18:26;;;;;;;17.20;12.20;;;;;;;4.38;89.41;100365.12;87209;1286;22471;-79
2022/09/25 05:20:36;;;;;;;14.10;12.00;;;;;;;4.51;89.30;100363.06;87217;1275;22509;-73
2022/09/25 05:22:46;;;;;;;12.30;10.40;;;;;;;4.63;89.38;100363.75;87188;1275;22483;-76
2022/09/25 05:24:57;;;;;;;16.70;11.40;;;;;;;4.74;89.37;100370.85;87219;1298;22622;-74
2022/09/25 05:27:07;;;;;;;14.90;11.70;;;;;;;4.84;89.36;100369.51;87231;1284;22462;-74
2022/09/25 05:29:16;;;;;;;16.70;11.10;;;;;;;4.93;89.69;100373.69;87187;1304;24369;-76
2022/09/25 05:31:25;;;;;;;16.50;11.50;;;;;;;5.02;89.63;100378.56;87228;1285;22464;-76
2022/09/25 05:33:34;;;;;;;14.80;11.40;;;;;;;5.11;89.74;100377.20;87213;1282;22465;-76
2022/09/25 05:35:43;;;;;;;15.20;11.30;;;;;;;5.22;89.73;100376.19;87199;1304;22468;-76
2022/09/25 05:37:52;;;;;;;16.10;11.80;;;;;;;5.34;89.58;100381.86;87221;1279;26453;-76
2022/09/25 05:40:01;;;;;;;19.10;12.80;;;;;;;5.77;90.40;100377.50;87220;1283;22475;-75
2022/09/25 05:42:10;;;;;;;16.40;12.50;;;;;;;6.67;94.88;100381.08;87233;1281;22473;-74
2022/09/25 05:44:20;;;;;;;17.80;12.00;;;;;;;7.71;97.65;100377.03;87209;1284;22475;-73
2022/09/25 05:46:28;;;;;;;16.20;12.20;;;;;;;8.56;95.31;100375.55;87219;1298;22459;-75
2022/09/25 05:48:37;;;;;;;14.70;12.40;;;;;;;9.34;92.38;100371.53;87191;1306;22483;-76
2022/09/25 05:50:46;;;;;;;16.20;11.40;;;;;;;9.99;88.71;100373.18;87237;1289;23794;-77
2022/09/25 05:53:00;;;;;;;15.20;12.40;;;;;;;10.29;87.98;100374.73;87223;1275;22494;-74
2022/09/25 05:55:12;;;;;;;14.50;11.70;;;;;;;10.53;86.50;100377.84;87226;1293;22734;-75
2022/09/25 05:57:21;;;;;;;15.70;11.90;;;;;;;10.93;86.00;100375.77;87183;1306;23905;-77
2022/09/25 05:59:32;;;;;;;15.20;12.10;;;;;;;11.20;82.38;100375.42;87210;1304;22434;-76
2022/09/25 06:01:41;;;;;;;24.20;14.70;;;;;;;11.17;79.98;100374.14;87095;1306;22494;-78
2022/09/25 06:03:49;;;;;;;21.20;17.90;;;;;;;11.15;78.87;100375.41;87165;1296;25182;-77
2022/09/25 06:05:58;;;;;;;22.80;17.00;;;;;;;11.09;78.49;100381.08;87089;1305;22850;-74
2022/09/25 06:08:07;;;;;;;22.60;17.40;;;;;;;10.89;77.74;100382.73;87204;1298;22535;-75
2022/09/25 06:10:16;;;;;;;26.40;21.20;;;;;;;10.71;77.58;100386.05;87198;1274;25495;-75
2022/09/25 06:12:24;;;;;;;27.60;20.10;;;;;;;10.60;77.82;100383.52;87169;1301;26589;-78
2022/09/25 06:14:36;;;;;;;33.00;23.00;;;;;;;10.57;78.27;100385.52;87225;1293;22495;-76
2022/09/25 06:16:56;;;;;;;31.00;22.30;;;;;;;10.54;78.31;100383.73;87233;1306;25565;-77
2022/09/25 06:19:09;;;;;;;27.40;19.50;;;;;;;10.52;78.44;100376.84;87187;1282;25260;-78
2022/09/25 06:21:20;;;;;;;23.30;17.80;;;;;;;10.54;78.73;100375.38;87199;1304;22490;-74
2022/09/25 06:23:30;;;;;;;25.30;18.70;;;;;;;10.58;79.01;100375.73;87118;1302;22464;-76
2022/09/25 06:25:39;;;;;;;20.60;16.40;;;;;;;10.65;79.12;100376.52;87179;1282;22501;-77
2022/09/25 06:27:49;;;;;;;24.50;16.20;;;;;;;10.76;78.97;100380.80;87173;1301;22458;-76
2022/09/25 06:29:58;;;;;;;20.40;16.80;;;;;;;10.87;78.76;100377.92;87260;1300;26688;-76
2022/09/25 06:32:07;;;;;;;22.90;16.80;;;;;;;10.97;78.69;100371.95;87202;1293;22554;-77
2022/09/25 06:34:17;;;;;;;21.90;16.00;;;;;;;11.09;77.89;100375.84;87061;1306;22566;-79
2022/09/25 06:36:26;;;;;;;19.20;16.00;;;;;;;11.22;77.56;100374.98;87176;1306;24219;-77
2022/09/25 06:38:37;;;;;;;23.30;16.10;;;;;;;11.36;76.89;100375.44;87096;1306;23195;-77
2022/09/25 06:40:46;;;;;;;18.80;14.70;;;;;;;11.50;76.39;100373.28;87161;1306;22480;-74
2022/09/25 06:43:03;;;;;;;21.10;17.00;;;;;;;11.61;75.17;100375.45;87170;1306;22421;-78
2022/09/25 06:45:14;;;;;;;21.60;16.20;;;;;;;11.73;75.41;100373.02;87202;1282;22460;-75
2022/09/25 06:47:23;;;;;;;20.40;16.00;;;;;;;11.87;75.31;100371.39;87192;1298;22466;-73
2022/09/25 06:49:32;;;;;;;21.30;16.30;;;;;;;12.04;75.08;100370.69;87183;1288;22477;-73
2022/09/25 06:51:41;;;;;;;19.70;15.60;;;;;;;12.18;74.29;100365.50;87189;1287;22469;-73
2022/09/25 06:53:50;;;;;;;18.00;16.00;;;;;;;12.30;73.05;100365.67;87231;1298;25268;-73
2022/09/25 06:56:01;;;;;;;25.70;16.40;;;;;;;12.39;72.69;100360.16;87232;1287;26470;-75
2022/09/25 06:58:12;;;;;;;17.80;15.90;;;;;;;12.49;72.53;100361.84;87198;1284;22480;-74
2022/09/25 07:00:22;;;;;;;16.30;14.50;;;;;;;12.57;72.18;100359.52;87185;1285;22472;-75
2022/09/25 07:04:59;;;;;;;17.90;14.80;;;;;;;12.65;71.09;100359.48;87167;1288;22599;-77
2022/09/25 07:07:08;;;;;;;17.00;15.00;;;;;;;12.66;70.68;100362.77;87215;1283;24081;-77
2022/09/25 07:09:16;;;;;;;19.60;15.60;;;;;;;12.68;70.47;100356.93;87181;1274;22661;-77
2022/09/25 07:11:26;;;;;;;17.50;14.80;;;;;;;12.69;70.59;100354.75;87104;1306;22457;-75
2022/09/25 07:13:35;;;;;;;;;;;;;;;12.73;70.77;100352.61;87154;1281;22459;-77
2022/09/25 07:15:45;;;;;;;17.60;15.00;;;;;;;12.76;70.21;100347.94;87192;1282;22483;-76
2022/09/25 07:17:54;;;;;;;22.00;16.10;;;;;;;12.80;69.71;100347.59;87126;1306;23141;-74
2022/09/25 07:20:03;;;;;;;18.90;15.60;;;;;;;12.81;68.92;100346.33;87091;1306;22505;-75
2022/09/25 07:22:11;;;;;;;16.00;13.30;;;;;;;12.84;68.91;100346.01;87090;1287;22473;-75
2022/09/25 07:24:20;;;;;;;19.40;14.50;;;;;;;12.90;69.47;100348.52;87070;1306;22485;-77
2022/09/25 07:26:38;;;;;;;14.80;13.20;;;;;;;13.04;69.81;100350.98;87150;1298;22481;-73
2022/09/25 07:29:39;;;;;;;18.00;13.90;;;;;;;13.29;69.08;100348.58;87042;1307;22505;-74
2022/09/25 07:32:05;;;;;;;15.80;12.90;;;;;;;13.53;68.89;100350.88;85421;1306;2441098;-74
2022/09/25 07:34:16;;;;;;;15.10;13.50;;;;;;;13.75;68.64;100351.33;87055;1309;22468;-76
2022/09/25 07:36:27;;;;;;;16.40;14.70;;;;;;;14.02;68.47;100351.00;87143;1287;22481;-75
2022/09/25 07:38:40;;;;;;;17.30;14.50;;;;;;;14.34;67.21;100352.61;87130;1306;22477;-75
2022/09/25 07:40:49;;;;;;;17.80;13.70;;;;;;;14.72;66.67;100352.84;87157;1306;22466;-77
2022/09/25 07:43:04;;;;;;;14.70;13.10;;;;;;;15.25;66.01;100349.64;87206;1282;24510;-77
2022/09/25 07:45:15;;;;;;;13.90;12.50;;;;;;;15.87;64.54;100344.98;87167;1288;22465;-73
2022/09/25 07:47:26;;;;;;;13.60;12.10;;;;;;;16.51;63.28;100340.48;87157;1301;22512;-78
2022/09/25 07:49:39;;;;;;;13.40;12.10;;;;;;;17.10;62.89;100337.40;87116;1301;22492;-75
2022/09/25 07:51:59;;;;;;;13.70;12.20;;;;;;;17.77;61.05;100336.65;87127;1298;23704;-75
2022/09/25 07:54:13;;;;;;;12.70;11.30;;;;;;;18.67;59.28;100336.83;87058;1285;22524;-74
2022/09/25 07:56:27;;;;;;;14.40;12.30;;;;;;;19.67;56.89;100327.45;86971;1285;22486;-76
2022/09/25 07:58:39;;;;;;;13.60;11.40;;;;;;;20.63;54.82;100327.58;87141;1306;22623;-78
2022/09/25 08:00:54;;;;;;;13.30;11.00;;;;;;;21.47;51.85;100324.05;87139;1275;22923;-76
2022/09/25 08:03:04;;;;;;;12.90;10.90;;;;;;;22.13;49.27;100325.02;87132;1280;22471;-77
2022/09/25 08:05:15;;;;;;;10.60;9.50;;;;;;;22.78;47.30;100322.83;87148;1282;22468;-77
2022/09/25 08:07:27;;;;;;;10.30;9.20;;;;;;;23.43;44.75;100324.36;87003;1293;22466;-74
2022/09/25 08:09:41;;;;;;;10.70;9.70;;;;;;;23.95;44.08;100317.67;87167;1286;22503;-73
2022/09/25 08:11:51;;;;;;;11.40;10.30;;;;;;;24.43;41.84;100318.83;87211;1296;25269;-74
2022/09/25 08:14:00;;;;;;;11.00;8.60;;;;;;;24.79;40.93;100313.92;87184;1306;22434;-73
2022/09/25 08:16:12;;;;;;;9.00;8.10;;;;;;;25.02;39.63;100315.66;87190;1287;22446;-75
2022/09/25 08:18:20;;;;;;;9.10;8.30;;;;;;;25.39;39.18;100315.77;87165;1304;24113;-74
2022/09/25 08:20:30;;;;;;;9.70;8.10;;;;;;;25.78;37.46;100316.23;87151;1282;21717;-72
2022/09/25 08:22:38;;;;;;;8.10;7.20;;;;;;;26.11;36.09;100315.65;87143;1305;22471;-72
2022/09/25 08:24:48;;;;;;;8.80;7.60;;;;;;;26.09;36.28;100312.89;87178;1300;26559;-73
2022/09/25 08:26:57;;;;;;;9.80;7.50;;;;;;;25.92;36.27;100313.23;87200;1306;22463;-72
2022/09/25 08:29:07;;;;;;;8.20;7.40;;;;;;;25.65;35.48;100316.72;87210;1305;22461;-75
2022/09/25 08:31:15;;;;;;;9.90;8.90;;;;;;;25.36;36.17;100315.55;87200;1285;22468;-74
2022/09/25 08:33:24;;;;;;;8.60;7.50;;;;;;;25.16;35.98;100317.87;87170;1305;23874;-72
2022/09/25 08:35:33;;;;;;;7.90;7.20;;;;;;;25.03;35.84;100318.83;87208;1277;22610;-74
2022/09/25 08:37:45;;;;;;;8.40;7.60;;;;;;;24.85;35.54;100313.25;87217;1299;26495;-74
2022/09/25 08:39:54;;;;;;;7.60;6.80;;;;;;;24.65;36.22;100308.42;87201;1294;22467;-72
2022/09/25 08:42:03;;;;;;;7.00;6.30;;;;;;;24.58;36.96;100312.59;87180;1274;23859;-72
2022/09/25 08:44:21;;;;;;;8.20;7.30;;;;;;;24.61;36.85;100306.73;87156;1298;22473;-73
2022/09/25 08:49:09;;;;;;;7.20;6.50;;;;;;;24.48;36.68;100302.84;87160;1304;22668;-72
2022/09/25 08:51:21;;;;;;;8.10;7.30;;;;;;;24.29;36.02;100302.20;87129;1305;22461;-75
2022/09/25 08:53:30;;;;;;;7.10;6.40;;;;;;;23.99;36.48;100305.57;87151;1285;22435;-75
2022/09/25 08:58:13;;;;;;;7.10;6.40;;;;;;;23.81;36.86;100302.46;87212;1288;22470;-74
2022/09/25 09:00:27;;;;;;;8.50;7.30;;;;;;;23.88;37.48;100298.73;87231;1292;22463;-74
2022/09/25 09:02:46;;;;;;;7.50;6.80;;;;;;;23.96;37.22;100296.38;87189;1306;22479;-74
2022/09/25 09:05:01;;;;;;;7.40;6.70;;;;;;;23.92;36.93;100295.54;87202;1306;22467;-74
2022/09/25 09:07:14;;;;;;;7.00;6.40;;;;;;;23.92;37.12;100293.34;87210;1298;25401;-76
2022/09/25 09:09:28;;;;;;;8.30;7.20;;;;;;;23.99;36.81;100289.39;87169;1299;24708;-78
2022/09/25 09:11:41;;;;;;;10.10;6.70;;;;;;;24.04;36.87;100285.98;87187;1279;22609;-77
2022/09/25 09:13:53;;;;;;;7.60;6.90;;;;;;;24.03;36.83;100284.37;87202;1306;22756;-78
2022/09/25 09:16:05;;;;;;;8.50;7.40;;;;;;;23.96;37.01;100283.21;87064;1306;26663;-78
2022/09/25 09:18:25;;;;;;;7.40;6.80;;;;;;;23.77;36.23;100286.12;87196;1278;22431;-77
2022/09/25 09:20:53;;;;;;;7.80;6.70;;;;;;;23.41;36.67;100287.13;87148;1306;22522;-78
2022/09/25 09:23:02;;;;;;;8.10;7.30;;;;;;;23.27;36.97;100281.83;87217;1289;22445;-79
2022/09/25 09:25:27;;;;;;;7.60;6.80;;;;;;;23.08;36.92;100282.37;87199;1288;22488;-77
2022/09/25 09:27:52;;;;;;;8.10;7.30;;;;;;;22.90;37.31;100281.83;87192;1282;22471;-79
2022/09/25 09:30:15;;;;;;;8.00;7.00;;;;;;;23.11;37.92;100279.06;87154;1282;22474;-77
2022/09/25 09:32:50;;;;;;;6.40;5.80;;;;;;;23.48;37.33;100276.52;87201;1304;22590;-75
2022/09/25 09:35:28;;;;;;;6.70;5.70;;;;;;;23.73;36.44;100268.89;87184;1282;22750;-78
2022/09/25 09:38:01;;;;;;;6.40;5.30;;;;;;;23.78;36.84;100268.73;87188;1282;22555;-78
2022/09/25 09:40:40;;;;;;;6.50;5.90;;;;;;;23.99;36.04;100265.45;87197;1301;25230;-78
2022/09/25 09:43:10;;;;;;;5.70;5.10;;;;;;;24.06;35.72;100258.04;87197;1306;22488;-76
2022/09/25 09:45:28;;;;;;;8.20;5.80;;;;;;;24.01;36.38;100254.63;87205;1287;24446;-75
2022/09/25 09:47:43;;;;;;;7.20;6.50;;;;;;;23.83;35.15;100253.33;87075;1280;22487;-76
2022/09/25 09:49:58;;;;;;;8.10;6.60;;;;;;;23.52;36.17;100248.86;87248;1282;22527;-75
2022/09/25 09:52:13;;;;;;;6.70;6.00;;;;;;;23.24;36.22;100245.16;87199;1289;22490;-76
2022/09/25 09:54:34;;;;;;;7.00;6.10;;;;;;;22.86;37.29;100243.59;87151;1281;22523;-76
2022/09/25 09:56:44;;;;;;;7.30;6.10;;;;;;;22.57;36.61;100239.53;87142;1306;22470;-78
2022/09/25 09:58:58;;;;;;;6.80;6.10;;;;;;;22.12;37.15;100238.55;87012;1308;24278;-76
2022/09/25 10:01:07;;;;;;;9.30;5.60;;;;;;;21.78;37.73;100233.90;87204;1295;22460;-78
2022/09/25 10:06:21;;;;;;;6.80;6.20;;;;;;;21.17;39.15;100222.03;87121;1306;22508;-76
2022/09/25 10:08:44;;;;;;;6.40;5.60;;;;;;;20.91;39.58;100220.36;87113;1305;22672;-81
2022/09/25 10:10:53;;;;;;;6.00;5.20;;;;;;;20.74;39.83;100214.12;87200;1306;22487;-77
2022/09/25 10:13:25;;;;;;;7.20;5.40;;;;;;;20.64;40.48;100219.40;87192;1301;22803;-77
2022/09/25 10:23:36;;;;;;;5.70;5.20;;;;;;;20.16;41.51;100210.23;86816;1312;24283;-77
2022/09/25 10:26:34;;;;;;;5.30;4.80;;;;;;;20.09;41.68;100208.92;86674;1296;22530;-75
2022/09/25 10:28:51;;;;;;;5.50;5.10;;;;;;;20.02;41.23;100212.38;86852;1313;22481;-76
2022/09/25 10:34:28;;;;;;;5.40;4.90;;;;;;;19.82;40.72;100215.68;86975;1299;22629;-78
2022/09/25 10:37:00;;;;;;;6.30;4.70;;;;;;;19.60;39.80;100211.75;87172;1292;22518;-75
2022/09/25 10:39:27;;;;;;;6.70;5.00;;;;;;;19.36;39.95;100210.44;87182;1277;22465;-75
2022/09/25 10:41:44;;;;;;;5.60;5.10;;;;;;;19.23;41.19;100210.21;87080;1306;25356;-78
2022/09/25 10:43:58;;;;;;;5.20;4.80;;;;;;;19.20;41.16;100206.20;87212;1290;25379;-78
2022/09/25 10:50:09;;;;;;;8.30;5.10;;;;;;;19.17;41.89;100202.38;87227;1306;22468;-76
2022/09/25 10:51:16;;;;;;;9.70;4.90;;;;;;;19.07;41.07;100196.37;87170;1305;22458;-78